createdAt,value
2022-11-28T00:02:32.940Z,101380.29
2022-11-28T00:05:08.084Z,101377.72
2022-11-28T00:07:41.706Z,101380.89
2022-11-28T00:10:16.018Z,101378.10
2022-11-28T00:12:49.568Z,101374.97
2022-11-28T00:15:23.159Z,101372.52
2022-11-28T00:17:56.461Z,101366.59
2022-11-28T00:20:29.900Z,101365.20
2022-11-28T00:23:03.212Z,101369.59
2022-11-28T00:25:36.530Z,101370.23
2022-11-28T00:28:10.220Z,101363.25
2022-11-28T00:30:43.690Z,101367.73
2022-11-28T00:33:17.222Z,101367.86
2022-11-28T00:35:51.103Z,101369.63
2022-11-28T00:38:25.056Z,101369.60
2022-11-28T00:41:04.403Z,101365.44
2022-11-28T00:43:38.217Z,101371.41
2022-11-28T00:46:12.307Z,101368.87
2022-11-28T00:48:46.198Z,101370.50
2022-11-28T00:51:20.828Z,101369.41
2022-11-28T00:53:55.771Z,101367.45
2022-11-28T00:56:32.562Z,101362.38
2022-11-28T00:59:06.282Z,101360.05
2022-11-28T01:01:42.443Z,101360.71
2022-11-28T01:04:17.774Z,101359.98
2022-11-28T01:06:52.307Z,101357.89
2022-11-28T01:09:27.045Z,101358.23
2022-11-28T01:12:00.847Z,101357.59
2022-11-28T01:14:35.042Z,101354.84
2022-11-28T01:17:09.565Z,101352.48
2022-11-28T01:19:42.894Z,101350.99
2022-11-28T01:22:16.574Z,101353.02
2022-11-28T01:24:50.281Z,101354.19
2022-11-28T01:27:23.965Z,101355.30
2022-11-28T01:29:57.635Z,101353.68
2022-11-28T01:32:31.412Z,101352.27
2022-11-28T01:35:05.133Z,101347.02
2022-11-28T01:37:38.725Z,101347.49
2022-11-28T01:40:14.766Z,101339.89
2022-11-28T01:42:48.360Z,101335.81
2022-11-28T01:45:25.264Z,101335.96
2022-11-28T01:48:04.373Z,101333.79
2022-11-28T01:50:39.128Z,101331.80
2022-11-28T01:53:14.334Z,101329.35
2022-11-28T01:55:56.542Z,101324.39
2022-11-28T01:58:31.131Z,101321.51
2022-11-28T02:01:05.170Z,101320.41
2022-11-28T02:03:43.774Z,101317.55
2022-11-28T02:06:19.890Z,101316.23
2022-11-28T02:08:56.335Z,101313.02
2022-11-28T02:11:47.731Z,101308.77
2022-11-28T02:14:34.535Z,101304.35
2022-11-28T02:17:24.974Z,101302.27
2022-11-28T02:20:25.888Z,101300.85
2022-11-28T02:23:06.404Z,101299.23
2022-11-28T02:26:07.576Z,101296.20
2022-11-28T02:29:19.635Z,101294.34
2022-11-28T02:32:19.258Z,101296.29
2022-11-28T02:34:59.602Z,101295.08
2022-11-28T02:37:40.277Z,101292.58
2022-11-28T02:40:23.930Z,101293.27
2022-11-28T02:43:12.775Z,101290.20
2022-11-28T02:45:52.447Z,101287.06
2022-11-28T02:48:33.176Z,101284.77
2022-11-28T02:51:13.183Z,101281.70
2022-11-28T02:53:51.157Z,101280.01
2022-11-28T02:56:26.951Z,101278.89
2022-11-28T02:59:00.610Z,101277.20
2022-11-28T03:01:39.594Z,101278.69
2022-11-28T03:04:27.157Z,101276.36
2022-11-28T03:07:12.089Z,101273.40
2022-11-28T03:10:03.930Z,101272.08
2022-11-28T03:12:47.948Z,101272.20
2022-11-28T03:15:25.639Z,101271.73
2022-11-28T03:18:09.526Z,101268.83
2022-11-28T03:20:48.988Z,101270.84
2022-11-28T03:23:28.686Z,101271.61
2022-11-28T03:26:09.290Z,101272.09
2022-11-28T03:28:47.127Z,101272.52
2022-11-28T03:31:23.919Z,101270.57
2022-11-28T03:34:00.972Z,101268.73
2022-11-28T03:36:38.263Z,101268.84
2022-11-28T03:39:15.679Z,101269.48
2022-11-28T03:41:54.111Z,101266.80
2022-11-28T03:44:28.682Z,101267.17
2022-11-28T03:47:06.955Z,101266.83
2022-11-28T03:49:43.685Z,101268.39
2022-11-28T03:52:23.558Z,101267.93
2022-11-28T03:55:02.446Z,101267.81
2022-11-28T03:57:39.519Z,101268.48
2022-11-28T04:00:15.529Z,101266.59
2022-11-28T04:02:57.341Z,101266.19
2022-11-28T04:05:39.020Z,101264.95
2022-11-28T04:08:18.648Z,101261.65
2022-11-28T04:10:58.373Z,101263.73
2022-11-28T04:13:35.687Z,101262.33
2022-11-28T04:16:14.889Z,101261.33
2022-11-28T04:18:56.881Z,101257.52
2022-11-28T04:21:36.060Z,101262.51
2022-11-28T04:24:14.349Z,101258.73
2022-11-28T04:26:53.648Z,101254.31
2022-11-28T04:29:29.980Z,101254.48
2022-11-28T04:32:05.795Z,101252.14
2022-11-28T04:34:43.651Z,101248.63
2022-11-28T04:37:19.405Z,101250.82
2022-11-28T04:39:54.340Z,101253.47
2022-11-28T04:42:34.448Z,101254.45
2022-11-28T04:45:15.212Z,101252.79
2022-11-28T04:47:49.410Z,101253.98
2022-11-28T04:50:25.245Z,101254.70
2022-11-28T04:53:02.329Z,101257.77
2022-11-28T04:55:40.847Z,101253.59
2022-11-28T04:58:17.940Z,101253.48
2022-11-28T05:00:54.694Z,101254.65
2022-11-28T05:03:31.192Z,101257.52
2022-11-28T05:06:05.981Z,101259.35
2022-11-28T05:08:39.705Z,101260.29
2022-11-28T05:11:13.106Z,101258.36
2022-11-28T05:13:46.627Z,101252.21
2022-11-28T05:16:20.747Z,101254.63
2022-11-28T05:18:54.830Z,101256.45
2022-11-28T05:21:28.295Z,101258.59
2022-11-28T05:24:02.113Z,101253.42
2022-11-28T05:26:35.900Z,101252.58
2022-11-28T05:29:09.579Z,101251.95
2022-11-28T05:31:43.220Z,101248.70
2022-11-28T05:34:16.990Z,101247.98
2022-11-28T05:36:50.497Z,101249.09
2022-11-28T05:39:23.676Z,101252.14
2022-11-28T05:41:58.191Z,101253.44
2022-11-28T05:44:32.016Z,101257.77
2022-11-28T05:47:05.296Z,101255.91
2022-11-28T05:49:38.855Z,101252.96
2022-11-28T05:52:12.383Z,101251.94
2022-11-28T05:54:46.149Z,101254.33
2022-11-28T05:57:19.509Z,101252.64
2022-11-28T05:59:53.385Z,101248.44
2022-11-28T06:02:27.127Z,101247.94
2022-11-28T06:05:16.208Z,101246.66
2022-11-28T06:07:55.072Z,101248.16
2022-11-28T06:10:28.513Z,101248.40
2022-11-28T06:13:03.280Z,101249.27
2022-11-28T06:15:38.499Z,101251.20
2022-11-28T06:18:12.795Z,101253.44
2022-11-28T06:20:46.282Z,101253.82
2022-11-28T06:23:19.692Z,101250.67
2022-11-28T06:25:53.392Z,101250.60
2022-11-28T06:28:26.936Z,101248.65
2022-11-28T06:31:00.968Z,101248.36
2022-11-28T06:33:34.602Z,101248.06
2022-11-28T06:36:09.968Z,101246.19
2022-11-28T06:38:43.907Z,101249.05
2022-11-28T06:41:19.500Z,101253.39
2022-11-28T06:43:52.881Z,101251.96
2022-11-28T06:46:26.588Z,101250.34
2022-11-28T06:49:00.201Z,101247.94
2022-11-28T06:51:34.139Z,101250.95
2022-11-28T06:54:08.446Z,101257.53
2022-11-28T06:56:43.049Z,101258.79
2022-11-28T06:59:16.766Z,101264.90
2022-11-28T07:01:50.247Z,101269.63
2022-11-28T07:04:24.124Z,101275.41
2022-11-28T07:06:57.476Z,101273.10
2022-11-28T07:09:31.332Z,101269.99
2022-11-28T07:12:04.881Z,101268.59
2022-11-28T07:14:38.574Z,101269.45
2022-11-28T07:17:11.597Z,101266.75
2022-11-28T07:19:48.161Z,101263.09
2022-11-28T07:22:24.403Z,101258.45
2022-11-28T07:24:58.083Z,101260.34
2022-11-28T07:27:32.179Z,101257.09
2022-11-28T07:30:06.139Z,101255.23
2022-11-28T07:32:42.599Z,101255.55
2022-11-28T07:35:16.117Z,101255.34
2022-11-28T07:37:50.132Z,101257.16
2022-11-28T07:40:23.517Z,101256.98
2022-11-28T07:42:57.096Z,101256.77
2022-11-28T07:45:47.505Z,101251.86
2022-11-28T07:48:25.367Z,101252.61
2022-11-28T07:50:58.784Z,101250.75
2022-11-28T07:53:32.455Z,101249.49
2022-11-28T07:56:08.148Z,101251.32
2022-11-28T07:58:41.748Z,101251.01
2022-11-28T08:01:17.047Z,101252.67
2022-11-28T08:03:51.176Z,101256.56
2022-11-28T08:06:27.875Z,101253.88
2022-11-28T08:09:03.849Z,101254.80
2022-11-28T08:11:38.015Z,101251.14
2022-11-28T08:14:11.407Z,101250.06
2022-11-28T08:16:46.514Z,101256.11
2022-11-28T08:19:24.581Z,101253.81
2022-11-28T08:21:58.648Z,101253.56
2022-11-28T08:24:32.435Z,101253.41
2022-11-28T08:27:06.050Z,101251.23
2022-11-28T08:29:39.969Z,101252.91
2022-11-28T08:32:13.450Z,101250.46
2022-11-28T08:34:47.269Z,101245.60
2022-11-28T08:37:20.858Z,101247.40
2022-11-28T08:39:54.507Z,101244.84
2022-11-28T08:42:29.406Z,101245.24
2022-11-28T08:45:03.263Z,101242.66
2022-11-28T08:47:37.374Z,101241.01
2022-11-28T08:50:11.972Z,101242.18
2022-11-28T08:52:46.485Z,101246.34
2022-11-28T08:55:25.116Z,101246.41
2022-11-28T08:58:05.434Z,101246.02
2022-11-28T09:00:39.176Z,101245.15
2022-11-28T09:03:16.628Z,101248.70
2022-11-28T09:05:50.765Z,101246.32
2022-11-28T09:08:24.782Z,101245.19
2022-11-28T09:10:58.779Z,101237.95
2022-11-28T09:13:32.352Z,101235.58
2022-11-28T09:16:07.468Z,101234.77
2022-11-28T09:18:41.004Z,101231.73
2022-11-28T09:21:16.749Z,101228.00
2022-11-28T09:23:50.399Z,101221.11
2022-11-28T09:26:26.189Z,101216.05
2022-11-28T09:28:59.495Z,101211.70
2022-11-28T09:31:33.079Z,101213.56
2022-11-28T09:34:06.577Z,101212.08
2022-11-28T09:36:40.046Z,101215.20
2022-11-28T09:39:13.980Z,101216.16
2022-11-28T09:41:57.336Z,101213.08
2022-11-28T09:44:39.819Z,101213.72
2022-11-28T09:47:20.549Z,101212.88
2022-11-28T09:49:58.528Z,101210.55
2022-11-28T09:52:40.498Z,101209.62
2022-11-28T09:55:23.303Z,101206.27
2022-11-28T09:57:58.054Z,101201.42
2022-11-28T10:00:38.089Z,101198.08
2022-11-28T10:03:35.348Z,101195.94
2022-11-28T10:06:19.746Z,101193.98
2022-11-28T10:09:18.250Z,101195.21
2022-11-28T10:11:58.097Z,101194.87
2022-11-28T10:14:57.264Z,101187.20
2022-11-28T10:17:44.800Z,101184.62
2022-11-28T10:20:23.909Z,101182.65
2022-11-28T10:23:02.252Z,101182.04
2022-11-28T10:25:40.581Z,101181.64
2022-11-28T10:28:21.616Z,101177.57
2022-11-28T10:31:02.467Z,101175.92
2022-11-28T10:33:43.567Z,101177.58
2022-11-28T10:36:23.363Z,101180.16
2022-11-28T10:38:56.856Z,101180.77
2022-11-28T10:41:36.460Z,101174.09
2022-11-28T10:44:21.821Z,101170.48
2022-11-28T10:47:05.989Z,101168.77
2022-11-28T10:49:51.092Z,101169.02
2022-11-28T10:52:29.279Z,101162.41
2022-11-28T10:55:23.309Z,101159.30
2022-11-28T10:58:04.842Z,101161.40
2022-11-28T11:00:39.887Z,101162.25
2022-11-28T11:03:18.936Z,101164.98
2022-11-28T11:05:52.651Z,101161.32
2022-11-28T11:08:27.872Z,101156.84
2022-11-28T11:11:07.168Z,101157.07
2022-11-28T11:14:00.379Z,101159.16
2022-11-28T11:16:50.716Z,101157.38
2022-11-28T11:19:30.376Z,101153.60
2022-11-28T11:22:08.124Z,101151.97
2022-11-28T11:24:41.485Z,101150.45
2022-11-28T11:27:23.005Z,101154.30
2022-11-28T11:29:57.660Z,101157.27
2022-11-28T11:32:32.433Z,101159.65
2022-11-28T11:35:07.272Z,101160.69
2022-11-28T11:37:41.729Z,101160.14
2022-11-28T11:40:27.064Z,101164.38
2022-11-28T11:43:02.439Z,101166.08
2022-11-28T11:45:44.352Z,101164.08
2022-11-28T11:48:36.337Z,101168.91
2022-11-28T11:51:22.618Z,101162.86
2022-11-28T11:54:07.225Z,101161.49
2022-11-28T11:56:43.924Z,101164.20
2022-11-28T11:59:22.250Z,101159.54
2022-11-28T12:02:02.482Z,101160.78
2022-11-28T12:04:47.199Z,101161.77
2022-11-28T12:07:30.614Z,101159.69
2022-11-28T12:10:06.136Z,101164.27
2022-11-28T12:12:42.435Z,101166.19
2022-11-28T12:15:30.138Z,101166.70
2022-11-28T12:18:22.260Z,101164.52
2022-11-28T12:21:09.957Z,101164.17
2022-11-28T12:24:08.782Z,101162.21
2022-11-28T12:26:49.935Z,101158.86
2022-11-28T12:29:40.184Z,101160.77
2022-11-28T12:32:24.265Z,101160.16
2022-11-28T12:35:09.361Z,101157.30
2022-11-28T12:41:00.314Z,101154.32
2022-11-28T12:43:47.706Z,101151.84
2022-11-28T12:46:30.314Z,101153.05
2022-11-28T12:49:17.829Z,101154.86
2022-11-28T12:52:14.926Z,101154.36
2022-11-28T12:55:04.786Z,101155.36
2022-11-28T12:57:45.335Z,101152.39
2022-11-28T13:00:22.902Z,101150.09
2022-11-28T13:03:21.393Z,101150.16
2022-11-28T13:06:07.744Z,101147.23
2022-11-28T13:09:03.082Z,101144.94
2022-11-28T13:11:55.856Z,101147.20
2022-11-28T13:14:40.198Z,101146.95
2022-11-28T13:17:27.546Z,101149.42
2022-11-28T13:20:09.673Z,101147.64
2022-11-28T13:22:57.275Z,101148.80
2022-11-28T13:25:39.359Z,101153.16
2022-11-28T13:28:20.708Z,101149.86
2022-11-28T13:30:58.681Z,101152.45
2022-11-28T13:33:51.388Z,101151.95
2022-11-28T13:39:39.750Z,101149.95
2022-11-28T13:45:31.767Z,101149.58
2022-11-28T13:51:38.801Z,101149.66
2022-11-28T13:54:48.439Z,101143.33
2022-11-28T13:57:32.806Z,101141.08
2022-11-28T14:00:23.725Z,101136.84
2022-11-28T14:03:00.382Z,101135.23
2022-11-28T14:05:37.528Z,101129.66
2022-11-28T14:08:27.681Z,101126.20
2022-11-28T14:11:27.629Z,101129.33
2022-11-28T14:14:16.025Z,101129.14
2022-11-28T14:17:03.489Z,101131.31
2022-11-28T14:19:55.698Z,101137.20
2022-11-28T14:22:42.985Z,101133.05
2022-11-28T14:25:22.190Z,101124.91
2022-11-28T14:27:58.939Z,101125.66
2022-11-28T14:30:38.840Z,101127.50
2022-11-28T14:33:22.017Z,101126.66
2022-11-28T14:36:25.380Z,101124.41
2022-11-28T14:39:37.526Z,101121.10
2022-11-28T14:42:59.726Z,101121.05
2022-11-28T14:45:46.462Z,101117.94
2022-11-28T14:48:32.438Z,101116.33
2022-11-28T14:51:07.475Z,101119.07
2022-11-28T14:53:47.109Z,101119.67
2022-11-28T14:56:30.135Z,101116.75
2022-11-28T14:59:05.160Z,101118.45
2022-11-28T15:01:54.396Z,101118.27
2022-11-28T15:04:51.668Z,101117.63
2022-11-28T15:07:36.687Z,101112.27
2022-11-28T15:10:20.301Z,101114.30
2022-11-28T15:13:07.550Z,101116.96
2022-11-28T15:15:51.312Z,101119.42
2022-11-28T15:18:26.758Z,101116.29
2022-11-28T15:21:06.238Z,101115.55
2022-11-28T15:23:40.757Z,101119.24
2022-11-28T15:26:23.462Z,101119.89
2022-11-28T15:29:20.792Z,101124.51
2022-11-28T15:31:57.462Z,101123.11
2022-11-28T15:34:33.768Z,101120.41
2022-11-28T15:37:18.120Z,101122.15
2022-11-28T15:39:52.938Z,101119.17
2022-11-28T15:42:31.140Z,101119.38
2022-11-28T15:45:10.618Z,101122.30
2022-11-28T15:47:47.030Z,101119.58
2022-11-28T15:50:25.508Z,101112.78
2022-11-28T15:53:00.952Z,101118.18
2022-11-28T15:55:38.294Z,101119.55
2022-11-28T15:58:20.394Z,101118.56
2022-11-28T16:01:00.677Z,101115.92
2022-11-28T16:03:37.332Z,101114.72
2022-11-28T16:06:11.652Z,101117.52
2022-11-28T16:08:52.594Z,101116.76
2022-11-28T16:11:29.465Z,101113.65
2022-11-28T16:14:09.170Z,101113.08
2022-11-28T16:16:44.116Z,101109.67
2022-11-28T16:19:27.476Z,101113.09
2022-11-28T16:22:03.865Z,101121.05
2022-11-28T16:24:48.275Z,101122.02
2022-11-28T16:27:35.858Z,101123.32
2022-11-28T16:30:30.566Z,101119.27
2022-11-28T16:33:05.305Z,101123.45
2022-11-28T16:35:41.957Z,101119.11
2022-11-28T16:38:20.852Z,101122.55
2022-11-28T16:40:54.292Z,101126.66
2022-11-28T16:43:40.485Z,101123.25
2022-11-28T16:46:24.043Z,101120.78
2022-11-28T16:49:00.430Z,101123.17
2022-11-28T16:51:42.059Z,101120.35
2022-11-28T16:54:35.403Z,101122.61
2022-11-28T16:57:16.277Z,101120.07
2022-11-28T16:59:53.903Z,101124.55
2022-11-28T17:02:28.819Z,101129.21
2022-11-28T17:05:03.794Z,101123.58
2022-11-28T17:07:38.823Z,101122.82
2022-11-28T17:10:15.071Z,101125.56
2022-11-28T17:12:50.828Z,101127.84
2022-11-28T17:15:25.905Z,101130.37
2022-11-28T17:18:01.027Z,101129.42
2022-11-28T17:20:36.125Z,101127.55
2022-11-28T17:23:11.954Z,101129.35
2022-11-28T17:25:46.160Z,101127.23
2022-11-28T17:28:23.198Z,101128.67
2022-11-28T17:31:00.760Z,101137.02
2022-11-28T17:33:43.121Z,101136.75
2022-11-28T17:36:20.463Z,101131.19
2022-11-28T17:39:04.840Z,101130.63
2022-11-28T17:41:41.794Z,101128.61
2022-11-28T17:44:20.931Z,101128.33
2022-11-28T17:46:57.396Z,101131.23
2022-11-28T17:49:33.366Z,101133.77
2022-11-28T17:52:09.259Z,101135.81
2022-11-28T17:54:43.759Z,101136.63
2022-11-28T17:57:21.465Z,101136.80
2022-11-28T17:59:57.393Z,101137.45
2022-11-28T18:02:31.820Z,101140.63
2022-11-28T18:05:07.593Z,101143.06
2022-11-28T18:07:42.025Z,101139.69
2022-11-28T18:10:18.744Z,101138.81
2022-11-28T18:12:54.235Z,101137.57
2022-11-28T18:15:29.441Z,101140.40
2022-11-28T18:18:05.825Z,101137.78
2022-11-28T18:20:42.357Z,101138.02
2022-11-28T18:23:18.042Z,101138.02
2022-11-28T18:25:53.272Z,101135.72
2022-11-28T18:28:31.722Z,101136.50
2022-11-28T18:31:14.193Z,101139.04
2022-11-28T18:33:49.946Z,101138.66
2022-11-28T18:36:26.677Z,101142.55
2022-11-28T18:39:05.791Z,101143.91
2022-11-28T18:41:40.606Z,101146.75
2022-11-28T18:44:15.647Z,101153.42
2022-11-28T18:46:50.355Z,101147.95
2022-11-28T18:49:25.792Z,101145.55
2022-11-28T18:52:01.385Z,101149.87
2022-11-28T18:54:39.491Z,101149.28
2022-11-28T18:57:14.049Z,101157.66
2022-11-28T18:59:55.272Z,101158.33
2022-11-28T19:02:30.460Z,101155.66
2022-11-28T19:05:05.370Z,101155.96
2022-11-28T19:07:42.834Z,101153.52
2022-11-28T19:10:18.801Z,101153.31
2022-11-28T19:12:54.107Z,101148.85
2022-11-28T19:15:27.987Z,101157.09
2022-11-28T19:18:02.267Z,101154.51
2022-11-28T19:20:36.551Z,101152.91
2022-11-28T19:23:11.908Z,101159.29
2022-11-28T19:25:50.197Z,101163.95
2022-11-28T19:28:27.209Z,101160.96
2022-11-28T19:31:10.069Z,101164.13
2022-11-28T19:33:50.375Z,101163.52
2022-11-28T19:36:25.352Z,101166.30
2022-11-28T19:39:01.758Z,101169.98
2022-11-28T19:41:37.923Z,101171.20
2022-11-28T19:44:17.261Z,101171.39
2022-11-28T19:46:54.358Z,101171.10
2022-11-28T19:49:32.401Z,101167.84
2022-11-28T19:52:08.387Z,101163.35
2022-11-28T19:54:47.084Z,101163.70
2022-11-28T19:57:22.391Z,101165.98
2022-11-28T19:59:59.091Z,101161.80
2022-11-28T20:02:34.873Z,101164.07
2022-11-28T20:05:11.848Z,101158.31
2022-11-28T20:07:48.431Z,101160.55
2022-11-28T20:10:24.270Z,101161.61
2022-11-28T20:12:59.773Z,101165.34
2022-11-28T20:15:36.709Z,101165.02
2022-11-28T20:18:12.039Z,101167.29
2022-11-28T20:20:46.947Z,101167.52
2022-11-28T20:23:21.590Z,101166.00
2022-11-28T20:25:56.716Z,101167.05
2022-11-28T20:28:32.638Z,101170.21
2022-11-28T20:31:09.161Z,101167.29
2022-11-28T20:33:45.368Z,101170.10
2022-11-28T20:36:21.189Z,101171.39
2022-11-28T20:38:57.521Z,101161.88
2022-11-28T20:41:32.589Z,101167.94
2022-11-28T20:44:08.330Z,101166.17
2022-11-28T20:46:45.081Z,101169.80
2022-11-28T20:49:20.033Z,101172.13
2022-11-28T20:51:55.111Z,101174.08
2022-11-28T20:54:31.597Z,101172.64
2022-11-28T20:57:21.232Z,101176.29
2022-11-28T20:59:58.901Z,101176.96
2022-11-28T21:02:33.974Z,101181.50
2022-11-28T21:05:09.809Z,101177.77
2022-11-28T21:07:44.494Z,101179.15
2022-11-28T21:10:19.203Z,101179.07
2022-11-28T21:12:53.314Z,101177.46
2022-11-28T21:15:27.197Z,101178.42
2022-11-28T21:18:00.582Z,101176.30
2022-11-28T21:20:35.471Z,101180.98
2022-11-28T21:23:09.786Z,101173.82
2022-11-28T21:25:44.857Z,101174.16
2022-11-28T21:28:19.347Z,101179.14
2022-11-28T21:30:53.197Z,101180.52
2022-11-28T21:33:27.100Z,101178.44
2022-11-28T21:36:03.417Z,101176.31
2022-11-28T21:38:37.775Z,101181.80
2022-11-28T21:41:12.065Z,101186.11
2022-11-28T21:43:45.567Z,101183.25
2022-11-28T21:46:19.527Z,101176.91
2022-11-28T21:48:54.017Z,101174.73
2022-11-28T21:51:29.072Z,101175.73
2022-11-28T21:54:03.075Z,101176.13
2022-11-28T21:56:37.680Z,101172.08
2022-11-28T21:59:11.313Z,101172.38
2022-11-28T22:01:46.881Z,101165.23
2022-11-28T22:04:22.377Z,101164.55
2022-11-28T22:06:55.797Z,101164.42
2022-11-28T22:09:29.465Z,101164.05
2022-11-28T22:12:05.628Z,101162.52
2022-11-28T22:14:39.919Z,101157.45
2022-11-28T22:17:13.797Z,101157.50
2022-11-28T22:19:47.440Z,101157.71
2022-11-28T22:22:21.399Z,101160.61
2022-11-28T22:24:55.140Z,101159.65
2022-11-28T22:27:32.440Z,101157.80
2022-11-28T22:30:06.188Z,101159.60
2022-11-28T22:32:39.749Z,101162.73
2022-11-28T22:35:13.974Z,101164.28
2022-11-28T22:37:47.953Z,101161.54
2022-11-28T22:40:21.883Z,101162.13
2022-11-28T22:42:59.317Z,101157.84
2022-11-28T22:45:33.656Z,101159.39
2022-11-28T22:48:08.279Z,101163.02
2022-11-28T22:50:43.762Z,101158.26
2022-11-28T22:53:17.442Z,101153.57
2022-11-28T22:55:51.268Z,101155.70
2022-11-28T22:58:24.501Z,101156.14
2022-11-28T23:00:58.351Z,101159.48
2022-11-28T23:03:32.023Z,101153.30
2022-11-28T23:06:09.893Z,101148.92
2022-11-28T23:08:43.965Z,101148.69
2022-11-28T23:11:19.592Z,101146.80
2022-11-28T23:13:54.309Z,101146.25
2022-11-28T23:16:30.402Z,101144.23
2022-11-28T23:19:06.366Z,101147.02
2022-11-28T23:21:42.770Z,101147.80
2022-11-28T23:24:19.037Z,101148.85
2022-11-28T23:26:53.917Z,101151.10
2022-11-28T23:29:27.586Z,101151.27
2022-11-28T23:32:01.941Z,101150.25
2022-11-28T23:34:36.577Z,101146.67
2022-11-28T23:37:10.507Z,101141.46
2022-11-28T23:39:44.382Z,101141.52
2022-11-28T23:42:20.073Z,101139.02
2022-11-28T23:44:54.020Z,101140.22
2022-11-28T23:47:27.442Z,101140.00
2022-11-28T23:50:01.076Z,101143.23
2022-11-28T23:52:35.319Z,101142.95
2022-11-28T23:55:10.345Z,101140.24
2022-11-28T23:57:43.956Z,101135.83
